Nakhchivan — 9HHK8 — position and weather

sailwx.info

Track history (hours):
 
Tides and Currents Weather Stations Pressure Air Temp Water Temp Dewpoint Dewpoint Depression Visibility Wind Speed Wind Dir Waves Ship Positions

Nakhchivan

Last reported at 2017-Jan-23 10:33 UTC. Time now 2017-Jan-23 10:36 UTC.
Position N 46°56' E 031°57'.

Length 139 m; draft 3.6 m.

Type: Cargo ship. MMSI: 215983000.

Date/timePositionNaut miles runAvg speedWind from/ knotsBaromVisibWave heightAir tempDewpointWater temp
2017-Jan-23 10:33N 46°56' E 031°57'0 0.0
2017-Jan-23 09:31N 46°56' E 031°57'0 0.0
2017-Jan-23 08:33N 46°56' E 031°57'0 0.0
2017-Jan-23 07:31N 46°56' E 031°57'0 0.0
2017-Jan-23 06:33N 46°56' E 031°57'0 0.0
2017-Jan-23 05:30N 46°56' E 031°57'0 0.0
2017-Jan-23 04:26N 46°56' E 031°57'0 0.0
2017-Jan-23 03:29N 46°56' E 031°57'0 0.0
2017-Jan-23 02:32N 46°56' E 031°57'0 0.0
2017-Jan-23 01:30N 46°56' E 031°57'0 0.0
2017-Jan-23 00:32N 46°56' E 031°57'0 0.0
2017-Jan-22 23:31N 46°56' E 031°57'0 0.0
2017-Jan-22 22:33N 46°56' E 031°57'0 0.0
2017-Jan-22 21:31N 46°56' E 031°57'0 0.0
2017-Jan-22 18:17N 46°56' E 031°57'0 0.0
2017-Jan-22 17:31N 46°56' E 031°57'0 0.0
2017-Jan-22 16:33N 46°56' E 031°57'0 0.0
2017-Jan-22 15:31N 46°56' E 031°57'0 0.0
2017-Jan-22 14:33N 46°56' E 031°57'0 0.0
2017-Jan-22 13:29N 46°56' E 031°57'0 0.0
2017-Jan-22 12:31N 46°56' E 031°57'0 0.0
2017-Jan-22 11:31N 46°56' E 031°57'0 0.0
2017-Jan-22 10:33N 46°56' E 031°57'0 0.0
2017-Jan-22 09:30N 46°56' E 031°57'0 0.0
2017-Jan-22 08:32N 46°56' E 031°57'0 0.0
2017-Jan-22 07:29N 46°56' E 031°57'0 0.0
2017-Jan-22 06:33N 46°56' E 031°57'0 0.0
2017-Jan-22 05:30N 46°56' E 031°57'0 0.0
2017-Jan-22 04:33N 46°56' E 031°57'0 0.0
2017-Jan-22 03:33N 46°56' E 031°57'0 0.1
2017-Jan-22 02:34N 46°56' E 031°57'3 3.0
2017-Jan-22 01:33N 46°55' E 032°01'9 8.7
2017-Jan-22 00:33N 46°48' E 031°54'7 7.3
2017-Jan-21 23:32N 46°41' E 031°56'8 7.6
2017-Jan-21 22:32N 46°36' E 031°48'34 4.7
2017-Jan-21 15:13N 46°21' E 031°03'0 0.4
2017-Jan-21 14:33N 46°21' E 031°03'3 0.9
2017-Jan-21 11:33N 46°19' E 031°04'  
Track history (hours):
 
Tides and Currents Weather Stations Pressure Air Temp Water Temp Dewpoint Dewpoint Depression Visibility Wind Speed Wind Dir Waves Ship Positions

Nakhchivan

Last reported at 2017-Jan-23 10:33 UTC. Time now 2017-Jan-23 10:36 UTC.
Position N 46°56' E 031°57'.

Length 139 m; draft 3.6 m.

Type: Cargo ship. MMSI: 215983000.

Date/timePositionNaut miles runAvg speedWind from/ knotsBaromVisibWave heightAir tempDewpointWater temp
2017-Jan-23 10:33N 46°56' E 031°57'0 0.0
2017-Jan-23 09:31N 46°56' E 031°57'0 0.0
2017-Jan-23 08:33N 46°56' E 031°57'0 0.0
2017-Jan-23 07:31N 46°56' E 031°57'0 0.0
2017-Jan-23 06:33N 46°56' E 031°57'0 0.0
2017-Jan-23 05:30N 46°56' E 031°57'0 0.0
2017-Jan-23 04:26N 46°56' E 031°57'0 0.0
2017-Jan-23 03:29N 46°56' E 031°57'0 0.0
2017-Jan-23 02:32N 46°56' E 031°57'0 0.0
2017-Jan-23 01:30N 46°56' E 031°57'0 0.0
2017-Jan-23 00:32N 46°56' E 031°57'0 0.0
2017-Jan-22 23:31N 46°56' E 031°57'0 0.0
2017-Jan-22 22:33N 46°56' E 031°57'0 0.0
2017-Jan-22 21:31N 46°56' E 031°57'0 0.0
2017-Jan-22 18:17N 46°56' E 031°57'0 0.0
2017-Jan-22 17:31N 46°56' E 031°57'0 0.0
2017-Jan-22 16:33N 46°56' E 031°57'0 0.0
2017-Jan-22 15:31N 46°56' E 031°57'0 0.0
2017-Jan-22 14:33N 46°56' E 031°57'0 0.0
2017-Jan-22 13:29N 46°56' E 031°57'0 0.0
2017-Jan-22 12:31N 46°56' E 031°57'0 0.0
2017-Jan-22 11:31N 46°56' E 031°57'0 0.0
2017-Jan-22 10:33N 46°56' E 031°57'0 0.0
2017-Jan-22 09:30N 46°56' E 031°57'0 0.0
2017-Jan-22 08:32N 46°56' E 031°57'0 0.0
2017-Jan-22 07:29N 46°56' E 031°57'0 0.0
2017-Jan-22 06:33N 46°56' E 031°57'0 0.0
2017-Jan-22 05:30N 46°56' E 031°57'0 0.0
2017-Jan-22 04:33N 46°56' E 031°57'0 0.0
2017-Jan-22 03:33N 46°56' E 031°57'0 0.1
2017-Jan-22 02:34N 46°56' E 031°57'3 3.0
2017-Jan-22 01:33N 46°55' E 032°01'9 8.7
2017-Jan-22 00:33N 46°48' E 031°54'7 7.3
2017-Jan-21 23:32N 46°41' E 031°56'8 7.6
2017-Jan-21 22:32N 46°36' E 031°48'34 4.7
2017-Jan-21 15:13N 46°21' E 031°03'0 0.4
2017-Jan-21 14:33N 46°21' E 031°03'3 0.9
2017-Jan-21 11:33N 46°19' E 031°04'  

Dump ship's entire track history